createdAt,value
2019-02-27T00:01:21.744Z,17.87
2019-02-27T00:07:14.847Z,17.53
2019-02-27T00:16:12.389Z,18.77
2019-02-27T00:22:08.907Z,18.87
2019-02-27T00:24:56.668Z,16.40
2019-02-27T00:27:48.742Z,18.40
2019-02-27T00:30:37.868Z,16.60
2019-02-27T00:33:26.102Z,15.47
2019-02-27T00:36:32.423Z,15.80
2019-02-27T00:39:20.441Z,17.07
2019-02-27T00:42:08.248Z,18.13
2019-02-27T00:44:56.108Z,17.03
2019-02-27T00:48:18.068Z,15.63
2019-02-27T00:50:53.634Z,18.07
2019-02-27T00:53:41.397Z,17.47
2019-02-27T00:59:32.896Z,16.47
2019-02-27T01:02:20.827Z,16.60
2019-02-27T01:05:31.365Z,16.27
2019-02-27T01:08:19.171Z,20.33
2019-02-27T01:11:06.967Z,15.17
2019-02-27T01:16:50.182Z,16.63
2019-02-27T01:19:39.694Z,19.03
2019-02-27T01:22:27.698Z,15.97
2019-02-27T01:25:15.722Z,16.03
2019-02-27T01:28:03.765Z,14.33
2019-02-27T01:30:51.539Z,15.97
2019-02-27T01:36:54.894Z,17.80
2019-02-27T01:39:44.126Z,15.97
2019-02-27T01:43:07.279Z,19.87
2019-02-27T01:45:57.410Z,15.13
2019-02-27T01:48:33.631Z,16.17
2019-02-27T01:51:40.843Z,14.17
2019-02-27T01:54:28.630Z,14.20
2019-02-27T01:57:16.657Z,14.80
2019-02-27T02:00:25.393Z,14.13
2019-02-27T02:03:13.710Z,18.47
2019-02-27T02:06:17.404Z,16.13
2019-02-27T02:09:13.687Z,15.30
2019-02-27T02:12:22.439Z,15.63
2019-02-27T02:15:05.576Z,15.30
2019-02-27T02:17:45.977Z,15.40
2019-02-27T02:20:27.225Z,17.60
2019-02-27T02:23:08.957Z,14.07
2019-02-27T02:25:50.461Z,16.63
2019-02-27T02:28:31.043Z,15.87
2019-02-27T02:31:11.896Z,13.37
2019-02-27T02:33:53.715Z,13.33
2019-02-27T02:36:34.373Z,12.60
2019-02-27T02:39:17.951Z,15.57
2019-02-27T02:41:59.864Z,11.70
2019-02-27T02:44:40.530Z,14.70
2019-02-27T02:47:21.519Z,13.00
2019-02-27T02:50:02.369Z,14.03
2019-02-27T02:52:43.047Z,13.67
2019-02-27T02:55:23.717Z,14.87
2019-02-27T02:58:07.991Z,13.17
2019-02-27T03:00:50.038Z,14.93
2019-02-27T03:03:37.054Z,15.13
2019-02-27T03:09:02.288Z,11.47
2019-02-27T03:11:44.655Z,12.23
2019-02-27T03:14:25.336Z,12.90
2019-02-27T03:17:07.525Z,12.17
2019-02-27T03:19:53.430Z,12.60
2019-02-27T03:22:40.176Z,11.60
2019-02-27T03:25:17.952Z,12.70
2019-02-27T03:28:04.674Z,12.53
2019-02-27T03:30:42.775Z,11.53
2019-02-27T03:33:27.112Z,12.83
2019-02-27T03:36:07.344Z,13.90
2019-02-27T03:38:47.899Z,13.03
2019-02-27T03:41:30.280Z,12.73
2019-02-27T03:44:11.141Z,13.73
2019-02-27T03:46:54.045Z,14.43
2019-02-27T03:49:40.739Z,14.37
2019-02-27T03:52:21.296Z,13.13
2019-02-27T03:55:01.998Z,11.53
2019-02-27T03:57:43.487Z,13.80
2019-02-27T04:00:38.185Z,11.70
2019-02-27T04:03:06.756Z,17.40
2019-02-27T04:05:47.715Z,12.77
2019-02-27T04:08:28.476Z,13.73
2019-02-27T04:11:09.457Z,11.63
2019-02-27T04:13:50.876Z,13.30
2019-02-27T04:16:31.612Z,10.83
2019-02-27T04:19:12.505Z,13.23
2019-02-27T04:21:53.687Z,12.93
2019-02-27T04:24:35.143Z,11.60
2019-02-27T04:27:20.215Z,11.43
2019-02-27T04:29:57.874Z,13.93
2019-02-27T04:32:40.710Z,14.30
2019-02-27T04:35:21.892Z,11.60
2019-02-27T04:40:48.417Z,13.00
2019-02-27T04:46:21.562Z,14.83
2019-02-27T04:51:48.062Z,11.60
2019-02-27T04:54:29.835Z,12.80
2019-02-27T04:57:10.534Z,10.20
2019-02-27T04:59:52.344Z,9.67
2019-02-27T05:02:33.708Z,14.23
2019-02-27T05:05:14.351Z,11.30
2019-02-27T05:07:54.984Z,11.97
2019-02-27T05:10:38.176Z,13.30
2019-02-27T05:13:20.902Z,12.90
2019-02-27T05:16:04.621Z,15.33
2019-02-27T05:18:47.712Z,14.23
2019-02-27T05:21:28.543Z,12.80
2019-02-27T05:24:11.721Z,13.80
2019-02-27T05:26:52.718Z,11.87
2019-02-27T05:29:35.165Z,13.67
2019-02-27T05:32:18.114Z,13.97
2019-02-27T05:34:58.551Z,10.93
2019-02-27T05:37:41.890Z,12.10
2019-02-27T05:40:25.969Z,14.77
2019-02-27T05:43:05.762Z,14.50
2019-02-27T05:45:46.504Z,12.80
2019-02-27T05:51:12.160Z,14.60
2019-02-27T05:53:56.154Z,19.00
2019-02-27T05:56:36.547Z,15.07
2019-02-27T05:59:17.826Z,14.17
2019-02-27T06:02:00.189Z,14.47
2019-02-27T06:04:44.363Z,13.93
2019-02-27T06:10:28.897Z,11.53
2019-02-27T06:13:14.045Z,12.43
2019-02-27T06:15:52.670Z,12.57
2019-02-27T06:18:33.643Z,13.80
2019-02-27T06:21:16.662Z,12.23
2019-02-27T06:23:58.770Z,10.80
2019-02-27T06:26:40.879Z,13.50
2019-02-27T06:32:12.366Z,16.13
2019-02-27T06:34:53.706Z,14.27
2019-02-27T06:37:37.596Z,13.73
2019-02-27T06:40:22.056Z,12.50
2019-02-27T06:43:06.019Z,14.20
2019-02-27T06:54:25.494Z,13.70
2019-02-27T06:59:57.086Z,12.00
2019-02-27T07:08:26.929Z,11.97
2019-02-27T07:11:10.526Z,13.20
2019-02-27T07:19:35.450Z,13.83
2019-02-27T07:36:45.152Z,17.77
2019-02-27T07:45:16.379Z,18.00
2019-02-27T07:47:58.849Z,16.00
2019-02-27T07:56:45.231Z,19.47
2019-02-27T08:01:57.058Z,17.00
2019-02-27T08:48:34.488Z,17.40
2019-02-27T08:51:18.131Z,16.33
2019-02-27T08:56:49.814Z,17.67
2019-02-27T09:02:29.210Z,20.30
2019-02-27T09:25:23.611Z,18.20
2019-02-27T09:28:03.651Z,18.43
2019-02-27T09:36:43.002Z,19.63
2019-02-27T09:45:08.281Z,20.03
2019-02-27T09:50:42.255Z,22.33
2019-02-27T09:53:25.361Z,17.53
2019-02-27T09:59:00.753Z,19.10
2019-02-27T10:04:29.062Z,18.33
2019-02-27T10:10:02.362Z,18.27
2019-02-27T10:15:35.521Z,18.70
2019-02-27T10:18:19.006Z,21.13
2019-02-27T10:23:46.261Z,17.80
2019-02-27T10:38:11.217Z,19.37
2019-02-27T10:40:50.069Z,20.10
2019-02-27T10:43:30.820Z,17.57
2019-02-27T10:46:13.208Z,22.73
2019-02-27T10:48:54.265Z,18.37
2019-02-27T10:51:36.262Z,17.73
2019-02-27T10:57:05.960Z,18.80
2019-02-27T10:59:49.497Z,17.97
2019-02-27T11:02:30.341Z,18.37
2019-02-27T11:05:18.419Z,17.73
2019-02-27T11:10:46.460Z,17.63
2019-02-27T11:13:28.538Z,17.47
2019-02-27T11:16:12.614Z,18.23
2019-02-27T11:21:38.754Z,16.07
2019-02-27T11:24:21.012Z,17.27
2019-02-27T11:27:06.215Z,18.00
2019-02-27T11:32:36.826Z,17.80
2019-02-27T11:35:22.060Z,18.03
2019-02-27T11:46:41.011Z,16.20
2019-02-27T11:49:23.374Z,18.07
2019-02-27T11:52:03.995Z,17.00
2019-02-27T11:57:30.539Z,18.40
2019-02-27T12:00:13.681Z,18.60
2019-02-27T12:02:54.853Z,17.77
2019-02-27T12:08:25.747Z,16.40
2019-02-27T12:13:58.051Z,16.63
2019-02-27T12:16:42.613Z,21.87
2019-02-27T12:19:22.853Z,22.53
2019-02-27T12:22:03.402Z,20.60
2019-02-27T12:30:24.029Z,18.13
2019-02-27T12:33:05.116Z,19.90
2019-02-27T12:35:45.882Z,17.87
2019-02-27T12:38:26.509Z,17.80
2019-02-27T12:43:54.926Z,19.73
2019-02-27T12:49:27.449Z,21.40
2019-02-27T12:58:16.373Z,17.60
2019-02-27T13:00:58.595Z,18.75
2019-02-27T13:06:48.077Z,20.00
2019-02-27T13:09:17.728Z,18.30
2019-02-27T13:12:17.329Z,17.60
2019-02-27T13:14:59.503Z,16.77
2019-02-27T13:17:43.541Z,17.00
2019-02-27T13:26:03.341Z,15.35
2019-02-27T13:28:48.817Z,18.52
2019-02-27T13:31:27.334Z,20.72
2019-02-27T13:34:11.327Z,15.40
2019-02-27T13:36:51.323Z,17.90
2019-02-27T13:39:32.479Z,19.37
2019-02-27T13:47:49.466Z,16.65
2019-02-27T13:50:31.536Z,20.00
2019-02-27T13:53:12.269Z,18.12
2019-02-27T13:58:36.871Z,16.17
2019-02-27T14:01:17.640Z,15.80
2019-02-27T14:04:02.015Z,16.62
2019-02-27T14:06:47.434Z,15.98
2019-02-27T14:09:27.233Z,14.80
2019-02-27T14:12:09.774Z,16.90
2019-02-27T14:17:49.400Z,17.98
2019-02-27T14:20:29.979Z,17.55
2019-02-27T14:23:14.593Z,17.17
2019-02-27T14:28:43.599Z,16.02
2019-02-27T14:31:25.585Z,15.83
2019-02-27T14:34:09.416Z,15.50
2019-02-27T14:42:23.290Z,15.35
2019-02-27T14:45:05.982Z,12.35
2019-02-27T14:47:49.003Z,11.97
2019-02-27T14:50:34.751Z,12.88
2019-02-27T14:53:19.877Z,11.50
2019-02-27T14:56:01.409Z,14.68
2019-02-27T15:04:50.399Z,11.57
2019-02-27T15:13:28.316Z,12.68
2019-02-27T15:16:10.071Z,11.60
2019-02-27T15:18:55.052Z,11.68
2019-02-27T15:21:33.964Z,10.93
2019-02-27T15:27:08.440Z,17.82
2019-02-27T15:29:52.980Z,10.93
2019-02-27T15:32:34.327Z,14.10
2019-02-27T15:35:15.593Z,15.20
2019-02-27T15:37:56.518Z,16.60
2019-02-27T15:40:39.202Z,14.85
2019-02-27T15:43:24.682Z,14.55
2019-02-27T15:46:02.710Z,13.58
2019-02-27T15:48:45.154Z,12.75
2019-02-27T15:51:28.480Z,13.78
2019-02-27T15:54:09.233Z,11.75
2019-02-27T15:59:41.768Z,12.25
2019-02-27T16:02:22.415Z,13.88
2019-02-27T16:05:03.268Z,13.83
2019-02-27T16:07:48.487Z,11.93
2019-02-27T16:10:55.341Z,12.15
2019-02-27T16:16:25.951Z,13.15
2019-02-27T16:22:03.188Z,13.48
2019-02-27T16:24:44.013Z,12.93
2019-02-27T16:27:26.023Z,12.63
2019-02-27T16:30:08.858Z,14.15
2019-02-27T16:32:50.508Z,17.60
2019-02-27T16:35:30.773Z,18.90
2019-02-27T16:38:13.151Z,21.50
2019-02-27T16:46:44.538Z,15.40
2019-02-27T16:49:23.530Z,17.77
2019-02-27T16:52:07.830Z,14.85
2019-02-27T16:54:47.387Z,13.72
2019-02-27T16:57:29.826Z,13.45
2019-02-27T17:03:01.812Z,13.83
2019-02-27T17:05:43.216Z,15.70
2019-02-27T17:08:24.430Z,12.40
2019-02-27T17:11:05.241Z,14.55
2019-02-27T17:16:33.372Z,14.05
2019-02-27T17:19:14.536Z,14.50
2019-02-27T17:33:40.023Z,11.77
2019-02-27T17:36:21.534Z,12.37
2019-02-27T17:39:04.694Z,11.73
2019-02-27T17:41:46.995Z,12.43
2019-02-27T17:44:27.677Z,17.50
2019-02-27T17:50:00.215Z,16.37
2019-02-27T17:52:40.757Z,21.63
2019-02-27T18:01:13.835Z,17.80
2019-02-27T18:09:30.335Z,16.90
2019-02-27T18:12:12.104Z,19.33
2019-02-27T18:14:52.667Z,16.60
2019-02-27T18:17:34.945Z,19.57
2019-02-27T18:20:15.640Z,21.27
2019-02-27T18:22:56.415Z,18.67
2019-02-27T18:28:32.922Z,19.90
2019-02-27T18:33:56.845Z,25.37
2019-02-27T18:36:46.489Z,19.00
2019-02-27T18:39:14.773Z,18.60
2019-02-27T18:42:02.552Z,18.60
2019-02-27T18:44:50.698Z,21.80
2019-02-27T18:47:39.458Z,22.43
2019-02-27T18:53:18.124Z,20.83
2019-02-27T18:56:05.932Z,27.93
2019-02-27T18:58:55.606Z,27.87
2019-02-27T19:01:45.238Z,30.70
2019-02-27T19:15:30.906Z,30.23
2019-02-27T19:18:11.903Z,30.37
2019-02-27T19:20:53.006Z,28.00
2019-02-27T19:23:33.786Z,26.53
2019-02-27T19:26:14.857Z,27.10
2019-02-27T19:28:59.330Z,25.20
2019-02-27T19:31:37.669Z,25.43
2019-02-27T19:34:18.733Z,29.77
2019-02-27T19:39:53.412Z,34.97
2019-02-27T19:42:33.733Z,36.00
2019-02-27T19:45:14.667Z,33.27
2019-02-27T19:47:58.678Z,31.97
2019-02-27T19:53:23.187Z,29.13
2019-02-27T19:56:03.996Z,28.90
2019-02-27T19:58:44.591Z,28.13
2019-02-27T20:01:25.352Z,32.33
2019-02-27T20:04:08.973Z,34.80
2019-02-27T20:06:48.812Z,34.50
2019-02-27T20:09:29.230Z,40.23
2019-02-27T20:14:54.269Z,32.63
2019-02-27T20:17:36.375Z,28.07
2019-02-27T20:20:16.603Z,29.87
2019-02-27T20:22:57.088Z,28.73
2019-02-27T20:25:43.184Z,29.80
2019-02-27T20:28:20.275Z,38.83
2019-02-27T20:31:00.848Z,34.43
2019-02-27T20:33:41.406Z,30.37
2019-02-27T20:36:22.200Z,29.23
2019-02-27T20:39:04.427Z,27.60
2019-02-27T20:41:45.319Z,29.90
2019-02-27T20:47:26.008Z,28.47
2019-02-27T20:50:06.586Z,25.27
2019-02-27T20:52:49.531Z,24.30
2019-02-27T20:55:30.845Z,25.97
2019-02-27T20:58:16.146Z,25.03
2019-02-27T21:03:37.726Z,24.43
2019-02-27T21:06:17.976Z,24.13
2019-02-27T21:09:01.831Z,25.17
2019-02-27T21:11:42.111Z,19.17
2019-02-27T21:14:24.262Z,57.47
2019-02-27T21:17:05.392Z,32.47
2019-02-27T21:19:46.526Z,23.23
2019-02-27T21:22:27.771Z,18.80
2019-02-27T21:25:08.663Z,19.93
2019-02-27T21:27:49.408Z,17.30
2019-02-27T21:30:30.302Z,18.77
2019-02-27T21:33:12.003Z,16.60
2019-02-27T21:35:52.957Z,20.30
2019-02-27T21:38:33.498Z,41.80
2019-02-27T21:41:14.368Z,26.93
2019-02-27T21:43:56.615Z,23.60
2019-02-27T21:49:20.282Z,15.73
2019-02-27T21:52:00.771Z,16.43
2019-02-27T21:54:44.334Z,17.10
2019-02-27T22:00:13.947Z,18.17
2019-02-27T22:02:54.906Z,16.27
2019-02-27T22:05:42.473Z,16.00
2019-02-27T22:08:17.843Z,15.17
2019-02-27T22:10:58.657Z,16.77
2019-02-27T22:13:42.275Z,15.77
2019-02-27T22:16:23.096Z,13.87
2019-02-27T22:19:03.661Z,14.63
2019-02-27T22:21:44.227Z,13.47
2019-02-27T22:24:25.134Z,14.03
2019-02-27T22:27:05.684Z,12.60
2019-02-27T22:29:46.449Z,12.50
2019-02-27T22:32:27.494Z,13.57
2019-02-27T22:35:08.085Z,15.97
2019-02-27T22:37:52.284Z,11.87
2019-02-27T22:40:31.440Z,12.63
2019-02-27T22:43:11.899Z,12.47
2019-02-27T22:45:55.793Z,12.37
2019-02-27T22:48:36.763Z,14.23
2019-02-27T22:51:17.594Z,11.13
2019-02-27T22:53:59.488Z,11.93
2019-02-27T22:56:40.789Z,12.43
2019-02-27T22:59:21.358Z,12.93
2019-02-27T23:02:01.585Z,10.93
2019-02-27T23:04:42.035Z,11.87
2019-02-27T23:07:22.552Z,12.93
2019-02-27T23:10:03.145Z,12.27
2019-02-27T23:12:43.579Z,12.33
2019-02-27T23:15:25.375Z,13.60
2019-02-27T23:18:06.836Z,12.90
2019-02-27T23:20:47.744Z,14.83
2019-02-27T23:26:41.603Z,13.13
2019-02-27T23:29:22.596Z,16.03
2019-02-27T23:32:03.202Z,13.37
2019-02-27T23:34:43.609Z,13.57
2019-02-27T23:37:29.375Z,12.63
2019-02-27T23:40:07.807Z,13.30
2019-02-27T23:42:48.502Z,12.50
2019-02-27T23:45:29.228Z,12.43
2019-02-27T23:48:10.117Z,12.67
2019-02-27T23:50:51.006Z,12.87
2019-02-27T23:53:31.341Z,15.43
2019-02-27T23:56:11.863Z,11.17
2019-02-27T23:58:52.754Z,12.77
